sensor_id;sensor_type;location;lat;lon;timestamp;pressure;altitude;pressure_sealevel;temperature;humidity
62031;BME280;62035;52.094;5.112;2022-11-15T00:01:09;100923.31;;;9.09;100.00
62031;BME280;62035;52.094;5.112;2022-11-15T00:03:41;100929.50;;;9.19;100.00
62031;BME280;62035;52.094;5.112;2022-11-15T00:06:09;100927.38;;;9.22;100.00
62031;BME280;62035;52.094;5.112;2022-11-15T00:08:36;100922.94;;;9.52;100.00
62031;BME280;62035;52.094;5.112;2022-11-15T00:11:04;100925.97;;;9.28;100.00
62031;BME280;62035;52.094;5.112;2022-11-15T00:13:33;100923.91;;;9.41;100.00
62031;BME280;62035;52.094;5.112;2022-11-15T00:16:01;100928.47;;;9.20;100.00
62031;BME280;62035;52.094;5.112;2022-11-15T00:18:30;100933.09;;;9.27;100.00
62031;BME280;62035;52.094;5.112;2022-11-15T00:21:03;100914.09;;;9.22;100.00
62031;BME280;62035;52.094;5.112;2022-11-15T00:23:33;100926.25;;;9.25;100.00
62031;BME280;62035;52.094;5.112;2022-11-15T00:26:01;100925.28;;;9.35;100.00
62031;BME280;62035;52.094;5.112;2022-11-15T00:28:29;100931.28;;;9.28;100.00
62031;BME280;62035;52.094;5.112;2022-11-15T00:31:01;100912.00;;;9.35;100.00
62031;BME280;62035;52.094;5.112;2022-11-15T00:33:30;100903.63;;;9.11;100.00
62031;BME280;62035;52.094;5.112;2022-11-15T00:36:01;100902.22;;;9.26;100.00
62031;BME280;62035;52.094;5.112;2022-11-15T00:38:31;100905.44;;;9.20;100.00
62031;BME280;62035;52.094;5.112;2022-11-15T00:41:00;100909.47;;;9.05;100.00
62031;BME280;62035;52.094;5.112;2022-11-15T00:43:29;100907.81;;;9.14;100.00
62031;BME280;62035;52.094;5.112;2022-11-15T00:45:57;100914.25;;;9.11;100.00
62031;BME280;62035;52.094;5.112;2022-11-15T00:48:26;100916.31;;;8.98;100.00
62031;BME280;62035;52.094;5.112;2022-11-15T00:50:53;100904.19;;;9.15;100.00
62031;BME280;62035;52.094;5.112;2022-11-15T00:53:21;100910.44;;;8.94;100.00
62031;BME280;62035;52.094;5.112;2022-11-15T00:55:49;100900.94;;;8.92;100.00
62031;BME280;62035;52.094;5.112;2022-11-15T00:58:16;100896.75;;;8.99;100.00
62031;BME280;62035;52.094;5.112;2022-11-15T01:00:44;100897.03;;;8.96;100.00
62031;BME280;62035;52.094;5.112;2022-11-15T01:03:12;100891.88;;;9.04;100.00
62031;BME280;62035;52.094;5.112;2022-11-15T01:05:40;100895.25;;;9.16;100.00
62031;BME280;62035;52.094;5.112;2022-11-15T01:08:12;100887.13;;;8.98;100.00
62031;BME280;62035;52.094;5.112;2022-11-15T01:10:40;100883.50;;;9.18;100.00
62031;BME280;62035;52.094;5.112;2022-11-15T01:13:08;100890.50;;;9.19;100.00
62031;BME280;62035;52.094;5.112;2022-11-15T01:15:39;100882.09;;;9.33;100.00
62031;BME280;62035;52.094;5.112;2022-11-15T01:18:07;100881.41;;;9.31;100.00
62031;BME280;62035;52.094;5.112;2022-11-15T01:20:40;100886.16;;;9.38;100.00
62031;BME280;62035;52.094;5.112;2022-11-15T01:23:09;100886.28;;;9.46;100.00
62031;BME280;62035;52.094;5.112;2022-11-15T01:25:37;100888.66;;;9.39;100.00
62031;BME280;62035;52.094;5.112;2022-11-15T01:28:04;100879.03;;;9.38;100.00
62031;BME280;62035;52.094;5.112;2022-11-15T01:30:32;100882.38;;;9.40;100.00
62031;BME280;62035;52.094;5.112;2022-11-15T01:32:59;100876.09;;;9.31;100.00
62031;BME280;62035;52.094;5.112;2022-11-15T01:35:27;100871.91;;;9.39;100.00
62031;BME280;62035;52.094;5.112;2022-11-15T01:37:56;100878.88;;;9.40;100.00
62031;BME280;62035;52.094;5.112;2022-11-15T01:40:23;100871.19;;;9.36;100.00
62031;BME280;62035;52.094;5.112;2022-11-15T01:42:51;100868.41;;;9.48;100.00
62031;BME280;62035;52.094;5.112;2022-11-15T01:45:19;100867.56;;;9.57;100.00
62031;BME280;62035;52.094;5.112;2022-11-15T01:47:48;100868.63;;;9.64;100.00
62031;BME280;62035;52.094;5.112;2022-11-15T01:50:23;100871.84;;;9.67;100.00
62031;BME280;62035;52.094;5.112;2022-11-15T01:52:57;100869.19;;;9.67;100.00
62031;BME280;62035;52.094;5.112;2022-11-15T01:55:26;100859.28;;;9.60;100.00
62031;BME280;62035;52.094;5.112;2022-11-15T01:57:58;100863.75;;;9.69;100.00
62031;BME280;62035;52.094;5.112;2022-11-15T02:00:29;100859.97;;;9.62;100.00
62031;BME280;62035;52.094;5.112;2022-11-15T02:02:57;100856.84;;;9.86;100.00
62031;BME280;62035;52.094;5.112;2022-11-15T02:05:25;100841.50;;;9.70;100.00
62031;BME280;62035;52.094;5.112;2022-11-15T02:07:54;100851.69;;;9.84;100.00
62031;BME280;62035;52.094;5.112;2022-11-15T02:10:24;100845.53;;;9.74;100.00
62031;BME280;62035;52.094;5.112;2022-11-15T02:12:52;100847.78;;;9.79;100.00
62031;BME280;62035;52.094;5.112;2022-11-15T02:15:23;100846.91;;;9.97;100.00
62031;BME280;62035;52.094;5.112;2022-11-15T02:18:07;100828.44;;;9.96;100.00
62031;BME280;62035;52.094;5.112;2022-11-15T02:20:55;100836.84;;;9.91;100.00
62031;BME280;62035;52.094;5.112;2022-11-15T02:27:22;100816.84;;;10.15;100.00
62031;BME280;62035;52.094;5.112;2022-11-15T02:30:38;100814.00;;;9.98;100.00
62031;BME280;62035;52.094;5.112;2022-11-15T02:33:18;100823.41;;;10.30;100.00
62031;BME280;62035;52.094;5.112;2022-11-15T02:35:58;100798.88;;;10.36;100.00
62031;BME280;62035;52.094;5.112;2022-11-15T02:38:32;100797.56;;;10.40;100.00
62031;BME280;62035;52.094;5.112;2022-11-15T02:41:15;100796.31;;;10.62;100.00
62031;BME280;62035;52.094;5.112;2022-11-15T02:43:51;100795.69;;;10.50;100.00
62031;BME280;62035;52.094;5.112;2022-11-15T02:46:28;100789.84;;;10.64;100.00
62031;BME280;62035;52.094;5.112;2022-11-15T02:49:19;100791.34;;;10.49;100.00
62031;BME280;62035;52.094;5.112;2022-11-15T02:51:49;100797.97;;;10.81;100.00
62031;BME280;62035;52.094;5.112;2022-11-15T02:54:21;100782.25;;;10.87;100.00
62031;BME280;62035;52.094;5.112;2022-11-15T02:56:53;100771.38;;;10.81;100.00
62031;BME280;62035;52.094;5.112;2022-11-15T02:59:50;100787.19;;;11.00;100.00
62031;BME280;62035;52.094;5.112;2022-11-15T03:02:42;100785.13;;;10.94;100.00
62031;BME280;62035;52.094;5.112;2022-11-15T03:05:30;100786.88;;;11.03;100.00
62031;BME280;62035;52.094;5.112;2022-11-15T03:08:08;100787.66;;;11.13;100.00
62031;BME280;62035;52.094;5.112;2022-11-15T03:10:46;100778.09;;;11.28;100.00
62031;BME280;62035;52.094;5.112;2022-11-15T03:13:27;100783.47;;;11.11;100.00
62031;BME280;62035;52.094;5.112;2022-11-15T03:16:03;100787.28;;;11.34;100.00
62031;BME280;62035;52.094;5.112;2022-11-15T03:18:38;100778.34;;;11.17;100.00
62031;BME280;62035;52.094;5.112;2022-11-15T03:21:12;100772.03;;;11.18;100.00
62031;BME280;62035;52.094;5.112;2022-11-15T03:23:43;100769.41;;;11.26;100.00
62031;BME280;62035;52.094;5.112;2022-11-15T03:26:14;100782.91;;;11.51;100.00
62031;BME280;62035;52.094;5.112;2022-11-15T03:28:50;100778.41;;;11.25;100.00
62031;BME280;62035;52.094;5.112;2022-11-15T03:31:23;100781.44;;;11.30;100.00
62031;BME280;62035;52.094;5.112;2022-11-15T03:34:20;100792.44;;;11.53;100.00
62031;BME280;62035;52.094;5.112;2022-11-15T03:36:54;100778.13;;;11.62;100.00
62031;BME280;62035;52.094;5.112;2022-11-15T03:39:23;100781.66;;;11.63;100.00
62031;BME280;62035;52.094;5.112;2022-11-15T03:41:59;100789.88;;;11.95;100.00
62031;BME280;62035;52.094;5.112;2022-11-15T03:44:40;100781.88;;;11.95;100.00
62031;BME280;62035;52.094;5.112;2022-11-15T03:47:17;100790.63;;;11.80;100.00
62031;BME280;62035;52.094;5.112;2022-11-15T03:49:55;100782.38;;;11.73;100.00
62031;BME280;62035;52.094;5.112;2022-11-15T03:52:31;100772.38;;;11.75;100.00
62031;BME280;62035;52.094;5.112;2022-11-15T03:55:03;100781.38;;;11.74;100.00
62031;BME280;62035;52.094;5.112;2022-11-15T03:57:32;100774.88;;;11.94;100.00
62031;BME280;62035;52.094;5.112;2022-11-15T04:00:00;100775.03;;;11.93;100.00
62031;BME280;62035;52.094;5.112;2022-11-15T04:02:27;100773.88;;;12.03;100.00
62031;BME280;62035;52.094;5.112;2022-11-15T04:04:56;100763.47;;;11.84;100.00
62031;BME280;62035;52.094;5.112;2022-11-15T04:07:24;100763.13;;;11.79;100.00
62031;BME280;62035;52.094;5.112;2022-11-15T04:09:52;100774.19;;;12.00;100.00
62031;BME280;62035;52.094;5.112;2022-11-15T04:12:33;100769.38;;;11.96;100.00
62031;BME280;62035;52.094;5.112;2022-11-15T04:15:03;100763.88;;;11.97;100.00
62031;BME280;62035;52.094;5.112;2022-11-15T04:17:37;100756.56;;;11.74;100.00
62031;BME280;62035;52.094;5.112;2022-11-15T04:20:10;100761.44;;;11.78;100.00
62031;BME280;62035;52.094;5.112;2022-11-15T04:22:58;100757.00;;;11.87;100.00
62031;BME280;62035;52.094;5.112;2022-11-15T04:25:44;100747.63;;;11.83;100.00
62031;BME280;62035;52.094;5.112;2022-11-15T04:28:14;100753.44;;;11.78;100.00
62031;BME280;62035;52.094;5.112;2022-11-15T04:30:42;100759.31;;;11.64;100.00
62031;BME280;62035;52.094;5.112;2022-11-15T04:33:10;100751.47;;;11.80;100.00
62031;BME280;62035;52.094;5.112;2022-11-15T04:35:39;100746.38;;;12.03;100.00
62031;BME280;62035;52.094;5.112;2022-11-15T04:38:08;100748.69;;;11.90;100.00
62031;BME280;62035;52.094;5.112;2022-11-15T04:40:37;100745.84;;;11.91;100.00
62031;BME280;62035;52.094;5.112;2022-11-15T04:43:05;100745.88;;;11.99;100.00
62031;BME280;62035;52.094;5.112;2022-11-15T04:45:32;100749.25;;;12.10;100.00
62031;BME280;62035;52.094;5.112;2022-11-15T04:48:00;100768.78;;;12.18;100.00
62031;BME280;62035;52.094;5.112;2022-11-15T04:50:27;100755.84;;;11.89;100.00
62031;BME280;62035;52.094;5.112;2022-11-15T04:52:56;100759.19;;;11.91;100.00
62031;BME280;62035;52.094;5.112;2022-11-15T04:55:24;100768.28;;;11.81;100.00
62031;BME280;62035;52.094;5.112;2022-11-15T04:57:57;100771.72;;;11.99;100.00
62031;BME280;62035;52.094;5.112;2022-11-15T05:00:27;100767.06;;;11.75;100.00
62031;BME280;62035;52.094;5.112;2022-11-15T05:02:56;100766.19;;;11.92;100.00
62031;BME280;62035;52.094;5.112;2022-11-15T05:05:42;100764.72;;;11.98;100.00
62031;BME280;62035;52.094;5.112;2022-11-15T05:08:10;100765.81;;;11.87;100.00
62031;BME280;62035;52.094;5.112;2022-11-15T05:10:38;100768.88;;;12.00;100.00
62031;BME280;62035;52.094;5.112;2022-11-15T05:13:06;100771.94;;;12.14;100.00
62031;BME280;62035;52.094;5.112;2022-11-15T05:15:33;100771.19;;;12.38;100.00
62031;BME280;62035;52.094;5.112;2022-11-15T05:18:01;100770.50;;;12.44;100.00
62031;BME280;62035;52.094;5.112;2022-11-15T05:20:28;100769.19;;;12.48;100.00
62031;BME280;62035;52.094;5.112;2022-11-15T05:22:56;100767.16;;;12.42;100.00
62031;BME280;62035;52.094;5.112;2022-11-15T05:25:25;100757.38;;;12.58;100.00
62031;BME280;62035;52.094;5.112;2022-11-15T05:27:53;100743.31;;;12.32;100.00
62031;BME280;62035;52.094;5.112;2022-11-15T05:30:21;100757.34;;;12.50;100.00
62031;BME280;62035;52.094;5.112;2022-11-15T05:32:49;100757.56;;;12.65;100.00
62031;BME280;62035;52.094;5.112;2022-11-15T05:35:21;100762.38;;;12.61;100.00
62031;BME280;62035;52.094;5.112;2022-11-15T05:37:56;100765.56;;;12.65;100.00
62031;BME280;62035;52.094;5.112;2022-11-15T05:40:26;100766.25;;;12.67;100.00
62031;BME280;62035;52.094;5.112;2022-11-15T05:42:56;100767.41;;;12.64;100.00
62031;BME280;62035;52.094;5.112;2022-11-15T05:45:26;100768.06;;;12.83;100.00
62031;BME280;62035;52.094;5.112;2022-11-15T05:47:56;100772.09;;;12.87;100.00
62031;BME280;62035;52.094;5.112;2022-11-15T05:50:26;100775.09;;;12.84;100.00
62031;BME280;62035;52.094;5.112;2022-11-15T05:52:55;100762.25;;;12.95;100.00
62031;BME280;62035;52.094;5.112;2022-11-15T05:55:23;100773.41;;;12.58;100.00
62031;BME280;62035;52.094;5.112;2022-11-15T05:57:52;100780.44;;;12.92;100.00
62031;BME280;62035;52.094;5.112;2022-11-15T06:00:20;100777.63;;;13.10;100.00
62031;BME280;62035;52.094;5.112;2022-11-15T06:02:47;100779.81;;;13.22;100.00
62031;BME280;62035;52.094;5.112;2022-11-15T06:05:15;100776.13;;;13.07;100.00
62031;BME280;62035;52.094;5.112;2022-11-15T06:07:42;100773.59;;;12.89;100.00
62031;BME280;62035;52.094;5.112;2022-11-15T06:10:10;100772.09;;;12.87;100.00
62031;BME280;62035;52.094;5.112;2022-11-15T06:12:38;100770.44;;;12.94;100.00
62031;BME280;62035;52.094;5.112;2022-11-15T06:15:08;100770.09;;;12.73;100.00
62031;BME280;62035;52.094;5.112;2022-11-15T06:17:36;100778.75;;;12.66;100.00
62031;BME280;62035;52.094;5.112;2022-11-15T06:20:04;100782.13;;;12.77;100.00
62031;BME280;62035;52.094;5.112;2022-11-15T06:22:32;100786.28;;;12.79;100.00
62031;BME280;62035;52.094;5.112;2022-11-15T06:25:00;100785.44;;;12.87;100.00
62031;BME280;62035;52.094;5.112;2022-11-15T06:27:27;100795.31;;;12.94;100.00
62031;BME280;62035;52.094;5.112;2022-11-15T06:29:55;100797.16;;;13.02;100.00
62031;BME280;62035;52.094;5.112;2022-11-15T06:32:24;100800.31;;;12.97;100.00
62031;BME280;62035;52.094;5.112;2022-11-15T06:34:51;100800.31;;;13.06;100.00
62031;BME280;62035;52.094;5.112;2022-11-15T06:37:19;100792.28;;;12.89;100.00
62031;BME280;62035;52.094;5.112;2022-11-15T06:39:46;100800.47;;;12.96;100.00
62031;BME280;62035;52.094;5.112;2022-11-15T06:42:14;100799.47;;;12.73;100.00
62031;BME280;62035;52.094;5.112;2022-11-15T06:44:41;100806.66;;;12.88;100.00
62031;BME280;62035;52.094;5.112;2022-11-15T06:47:09;100798.81;;;12.79;100.00
62031;BME280;62035;52.094;5.112;2022-11-15T06:49:38;100816.16;;;12.91;100.00
62031;BME280;62035;52.094;5.112;2022-11-15T06:52:05;100812.34;;;13.01;100.00
62031;BME280;62035;52.094;5.112;2022-11-15T06:54:33;100817.34;;;12.96;100.00
62031;BME280;62035;52.094;5.112;2022-11-15T06:57:00;100815.88;;;13.10;100.00
62031;BME280;62035;52.094;5.112;2022-11-15T06:59:28;100821.00;;;12.95;100.00
62031;BME280;62035;52.094;5.112;2022-11-15T07:01:55;100815.31;;;12.74;100.00
62031;BME280;62035;52.094;5.112;2022-11-15T07:04:23;100818.97;;;12.81;100.00
62031;BME280;62035;52.094;5.112;2022-11-15T07:06:52;100817.81;;;12.76;100.00
62031;BME280;62035;52.094;5.112;2022-11-15T07:09:20;100820.28;;;12.61;100.00
62031;BME280;62035;52.094;5.112;2022-11-15T07:11:47;100820.63;;;12.66;100.00
62031;BME280;62035;52.094;5.112;2022-11-15T07:14:15;100819.00;;;12.73;100.00
62031;BME280;62035;52.094;5.112;2022-11-15T07:16:42;100830.44;;;12.57;100.00
62031;BME280;62035;52.094;5.112;2022-11-15T07:19:10;100834.59;;;12.52;100.00
62031;BME280;62035;52.094;5.112;2022-11-15T07:21:37;100824.78;;;12.60;100.00
62031;BME280;62035;52.094;5.112;2022-11-15T07:24:07;100831.44;;;12.56;100.00
62031;BME280;62035;52.094;5.112;2022-11-15T07:26:34;100833.13;;;12.57;100.00
62031;BME280;62035;52.094;5.112;2022-11-15T07:29:02;100829.94;;;12.54;100.00
62031;BME280;62035;52.094;5.112;2022-11-15T07:31:29;100824.47;;;12.63;100.00
62031;BME280;62035;52.094;5.112;2022-11-15T07:33:57;100819.88;;;12.40;100.00
62031;BME280;62035;52.094;5.112;2022-11-15T07:36:24;100828.41;;;12.43;100.00
62031;BME280;62035;52.094;5.112;2022-11-15T07:38:52;100814.69;;;12.30;100.00
62031;BME280;62035;52.094;5.112;2022-11-15T07:41:21;100808.03;;;12.34;100.00
62031;BME280;62035;52.094;5.112;2022-11-15T07:43:51;100810.88;;;12.41;100.00
62031;BME280;62035;52.094;5.112;2022-11-15T07:46:18;100817.56;;;12.37;100.00
62031;BME280;62035;52.094;5.112;2022-11-15T07:48:46;100822.13;;;12.18;100.00
62031;BME280;62035;52.094;5.112;2022-11-15T07:51:15;100822.94;;;12.11;100.00
62031;BME280;62035;52.094;5.112;2022-11-15T07:53:43;100827.00;;;12.23;100.00
62031;BME280;62035;52.094;5.112;2022-11-15T07:56:12;100806.66;;;12.22;100.00
62031;BME280;62035;52.094;5.112;2022-11-15T07:58:41;100824.06;;;12.42;100.00
62031;BME280;62035;52.094;5.112;2022-11-15T08:01:11;100819.63;;;12.59;100.00
62031;BME280;62035;52.094;5.112;2022-11-15T08:03:39;100809.59;;;12.61;100.00
62031;BME280;62035;52.094;5.112;2022-11-15T08:06:06;100803.47;;;12.77;100.00
62031;BME280;62035;52.094;5.112;2022-11-15T08:08:34;100802.41;;;12.53;100.00
62031;BME280;62035;52.094;5.112;2022-11-15T08:11:02;100803.78;;;12.65;100.00
62031;BME280;62035;52.094;5.112;2022-11-15T08:13:30;100799.78;;;12.86;100.00
62031;BME280;62035;52.094;5.112;2022-11-15T08:15:59;100788.94;;;12.71;100.00
62031;BME280;62035;52.094;5.112;2022-11-15T08:18:28;100795.44;;;12.68;100.00
62031;BME280;62035;52.094;5.112;2022-11-15T08:20:58;100798.78;;;12.71;100.00
62031;BME280;62035;52.094;5.112;2022-11-15T08:23:27;100797.78;;;12.80;100.00
62031;BME280;62035;52.094;5.112;2022-11-15T08:25:59;100795.78;;;12.82;100.00
62031;BME280;62035;52.094;5.112;2022-11-15T08:28:28;100788.47;;;12.76;100.00
62031;BME280;62035;52.094;5.112;2022-11-15T08:30:56;100775.78;;;13.02;100.00
62031;BME280;62035;52.094;5.112;2022-11-15T08:33:25;100775.78;;;13.10;100.00
62031;BME280;62035;52.094;5.112;2022-11-15T08:35:56;100771.28;;;12.78;100.00
62031;BME280;62035;52.094;5.112;2022-11-15T08:38:24;100775.63;;;13.03;100.00
62031;BME280;62035;52.094;5.112;2022-11-15T08:40:53;100758.91;;;13.01;100.00
62031;BME280;62035;52.094;5.112;2022-11-15T08:43:28;100748.06;;;13.11;100.00
62031;BME280;62035;52.094;5.112;2022-11-15T08:45:55;100752.78;;;13.17;100.00
62031;BME280;62035;52.094;5.112;2022-11-15T08:48:25;100750.91;;;13.10;100.00
62031;BME280;62035;52.094;5.112;2022-11-15T08:50:53;100753.06;;;12.98;100.00
62031;BME280;62035;52.094;5.112;2022-11-15T08:53:22;100764.75;;;13.05;100.00
62031;BME280;62035;52.094;5.112;2022-11-15T08:55:50;100753.25;;;13.05;100.00
62031;BME280;62035;52.094;5.112;2022-11-15T08:58:17;100756.91;;;13.03;100.00
62031;BME280;62035;52.094;5.112;2022-11-15T09:00:45;100765.09;;;13.10;100.00
62031;BME280;62035;52.094;5.112;2022-11-15T09:03:12;100763.09;;;13.20;100.00
62031;BME280;62035;52.094;5.112;2022-11-15T09:05:42;100762.47;;;13.18;100.00
62031;BME280;62035;52.094;5.112;2022-11-15T09:08:10;100757.09;;;13.26;100.00
62031;BME280;62035;52.094;5.112;2022-11-15T09:10:38;100749.91;;;13.27;100.00
62031;BME280;62035;52.094;5.112;2022-11-15T09:13:06;100748.91;;;13.12;100.00
62031;BME280;62035;52.094;5.112;2022-11-15T09:15:33;100748.41;;;13.00;100.00
62031;BME280;62035;52.094;5.112;2022-11-15T09:18:01;100752.06;;;12.83;100.00
62031;BME280;62035;52.094;5.112;2022-11-15T09:20:29;100753.41;;;13.03;100.00
62031;BME280;62035;52.094;5.112;2022-11-15T09:23:00;100742.72;;;13.03;100.00
62031;BME280;62035;52.094;5.112;2022-11-15T09:25:28;100732.69;;;13.05;100.00
62031;BME280;62035;52.094;5.112;2022-11-15T09:27:56;100729.19;;;13.13;100.00
62031;BME280;62035;52.094;5.112;2022-11-15T09:30:24;100729.69;;;12.84;100.00
62031;BME280;62035;52.094;5.112;2022-11-15T09:32:52;100726.03;;;12.77;100.00
62031;BME280;62035;52.094;5.112;2022-11-15T09:35:19;100735.69;;;12.86;100.00
62031;BME280;62035;52.094;5.112;2022-11-15T09:37:47;100732.03;;;12.87;100.00
62031;BME280;62035;52.094;5.112;2022-11-15T09:40:17;100733.88;;;13.02;100.00
62031;BME280;62035;52.094;5.112;2022-11-15T09:43:01;100735.53;;;13.36;100.00
62031;BME280;62035;52.094;5.112;2022-11-15T09:45:43;100726.69;;;13.27;100.00
62031;BME280;62035;52.094;5.112;2022-11-15T09:48:43;100723.84;;;13.21;100.00
62031;BME280;62035;52.094;5.112;2022-11-15T09:51:25;100735.03;;;13.24;100.00
62031;BME280;62035;52.094;5.112;2022-11-15T09:54:10;100728.97;;;13.55;100.00
62031;BME280;62035;52.094;5.112;2022-11-15T09:56:44;100736.50;;;13.59;100.00
62031;BME280;62035;52.094;5.112;2022-11-15T10:02:22;100717.97;;;13.50;100.00
62031;BME280;62035;52.094;5.112;2022-11-15T10:05:07;100722.75;;;13.62;100.00
62031;BME280;62035;52.094;5.112;2022-11-15T10:07:46;100721.09;;;13.61;100.00
62031;BME280;62035;52.094;5.112;2022-11-15T10:10:38;100704.50;;;13.74;100.00
62031;BME280;62035;52.094;5.112;2022-11-15T10:13:13;100697.16;;;13.68;100.00
62031;BME280;62035;52.094;5.112;2022-11-15T10:15:47;100686.97;;;13.63;100.00
62031;BME280;62035;52.094;5.112;2022-11-15T10:18:17;100704.66;;;13.81;100.00
62031;BME280;62035;52.094;5.112;2022-11-15T10:20:58;100703.09;;;13.94;100.00
62031;BME280;62035;52.094;5.112;2022-11-15T10:23:27;100689.25;;;13.83;100.00
62031;BME280;62035;52.094;5.112;2022-11-15T10:25:58;100674.19;;;13.90;100.00
62031;BME280;62035;52.094;5.112;2022-11-15T10:28:29;100674.53;;;13.87;100.00
62031;BME280;62035;52.094;5.112;2022-11-15T10:30:59;100684.94;;;13.74;100.00
62031;BME280;62035;52.094;5.112;2022-11-15T10:33:31;100681.75;;;13.78;100.00
62031;BME280;62035;52.094;5.112;2022-11-15T10:36:21;100680.38;;;13.51;100.00
62031;BME280;62035;52.094;5.112;2022-11-15T10:38:56;100674.09;;;13.67;100.00
62031;BME280;62035;52.094;5.112;2022-11-15T10:41:34;100667.50;;;13.47;100.00
62031;BME280;62035;52.094;5.112;2022-11-15T10:44:29;100665.66;;;13.55;100.00
62031;BME280;62035;52.094;5.112;2022-11-15T10:47:23;100650.19;;;13.26;100.00
62031;BME280;62035;52.094;5.112;2022-11-15T10:49:59;100638.41;;;13.52;100.00
62031;BME280;62035;52.094;5.112;2022-11-15T10:52:29;100655.00;;;13.78;100.00
62031;BME280;62035;52.094;5.112;2022-11-15T10:55:02;100653.69;;;13.74;100.00
62031;BME280;62035;52.094;5.112;2022-11-15T10:57:36;100639.78;;;13.79;100.00
62031;BME280;62035;52.094;5.112;2022-11-15T11:00:27;100634.97;;;13.74;100.00
62031;BME280;62035;52.094;5.112;2022-11-15T11:02:59;100624.38;;;13.89;100.00
62031;BME280;62035;52.094;5.112;2022-11-15T11:05:30;100610.81;;;13.90;100.00
62031;BME280;62035;52.094;5.112;2022-11-15T11:08:00;100607.78;;;13.62;100.00
62031;BME280;62035;52.094;5.112;2022-11-15T11:10:29;100608.84;;;13.84;100.00
62031;BME280;62035;52.094;5.112;2022-11-15T11:13:13;100608.72;;;13.78;100.00
62031;BME280;62035;52.094;5.112;2022-11-15T11:15:46;100608.75;;;13.69;100.00
62031;BME280;62035;52.094;5.112;2022-11-15T11:18:21;100605.16;;;13.54;100.00
62031;BME280;62035;52.094;5.112;2022-11-15T11:20:58;100618.75;;;13.76;100.00
62031;BME280;62035;52.094;5.112;2022-11-15T11:23:45;100615.84;;;13.85;100.00
62031;BME280;62035;52.094;5.112;2022-11-15T11:26:32;100609.38;;;14.02;100.00
62031;BME280;62035;52.094;5.112;2022-11-15T11:29:19;100602.91;;;13.97;100.00
62031;BME280;62035;52.094;5.112;2022-11-15T11:32:01;100605.63;;;14.12;100.00
62031;BME280;62035;52.094;5.112;2022-11-15T11:34:54;100596.44;;;14.14;100.00
62031;BME280;62035;52.094;5.112;2022-11-15T11:37:34;100598.69;;;14.02;100.00
62031;BME280;62035;52.094;5.112;2022-11-15T11:40:16;100581.34;;;13.98;100.00
62031;BME280;62035;52.094;5.112;2022-11-15T11:42:58;100582.19;;;13.99;100.00
62031;BME280;62035;52.094;5.112;2022-11-15T11:45:46;100586.06;;;14.11;100.00
62031;BME280;62035;52.094;5.112;2022-11-15T11:48:41;100562.34;;;14.31;100.00
62031;BME280;62035;52.094;5.112;2022-11-15T11:51:17;100559.50;;;14.32;100.00
62031;BME280;62035;52.094;5.112;2022-11-15T11:53:52;100528.94;;;14.04;100.00
62031;BME280;62035;52.094;5.112;2022-11-15T11:56:28;100533.75;;;14.09;100.00
62031;BME280;62035;52.094;5.112;2022-11-15T11:59:05;100531.72;;;14.11;100.00
62031;BME280;62035;52.094;5.112;2022-11-15T12:01:41;100527.84;;;13.98;100.00
62031;BME280;62035;52.094;5.112;2022-11-15T12:04:16;100533.63;;;14.25;100.00
62031;BME280;62035;52.094;5.112;2022-11-15T12:06:50;100544.16;;;14.26;100.00
62031;BME280;62035;52.094;5.112;2022-11-15T12:09:26;100530.72;;;14.12;100.00
62031;BME280;62035;52.094;5.112;2022-11-15T12:12:04;100515.84;;;14.32;100.00
62031;BME280;62035;52.094;5.112;2022-11-15T12:14:47;100517.81;;;14.53;100.00
62031;BME280;62035;52.094;5.112;2022-11-15T12:17:22;100512.72;;;14.43;100.00
62031;BME280;62035;52.094;5.112;2022-11-15T12:19:56;100498.31;;;14.07;100.00
62031;BME280;62035;52.094;5.112;2022-11-15T12:22:35;100497.78;;;14.49;100.00
62031;BME280;62035;52.094;5.112;2022-11-15T12:25:13;100486.13;;;14.42;100.00
62031;BME280;62035;52.094;5.112;2022-11-15T12:27:48;100485.34;;;14.18;100.00
62031;BME280;62035;52.094;5.112;2022-11-15T12:30:22;100479.59;;;14.44;100.00
62031;BME280;62035;52.094;5.112;2022-11-15T12:32:54;100485.88;;;14.51;100.00
62031;BME280;62035;52.094;5.112;2022-11-15T12:35:32;100465.75;;;14.55;100.00
62031;BME280;62035;52.094;5.112;2022-11-15T12:38:03;100461.94;;;14.35;100.00
62031;BME280;62035;52.094;5.112;2022-11-15T12:40:36;100466.72;;;14.25;100.00
62031;BME280;62035;52.094;5.112;2022-11-15T12:46:11;100446.72;;;14.50;100.00
62031;BME280;62035;52.094;5.112;2022-11-15T12:48:54;100440.44;;;14.73;100.00
62031;BME280;62035;52.094;5.112;2022-11-15T12:54:59;100431.66;;;14.34;100.00
62031;BME280;62035;52.094;5.112;2022-11-15T12:57:48;100420.59;;;14.67;100.00
62031;BME280;62035;52.094;5.112;2022-11-15T13:00:44;100422.34;;;14.75;100.00
62031;BME280;62035;52.094;5.112;2022-11-15T13:03:24;100418.66;;;14.76;100.00
62031;BME280;62035;52.094;5.112;2022-11-15T13:06:01;100425.22;;;14.73;100.00
62031;BME280;62035;52.094;5.112;2022-11-15T13:08:48;100420.88;;;14.57;100.00
62031;BME280;62035;52.094;5.112;2022-11-15T13:11:43;100418.56;;;14.69;100.00
62031;BME280;62035;52.094;5.112;2022-11-15T13:14:41;100409.06;;;14.66;100.00
62031;BME280;62035;52.094;5.112;2022-11-15T13:17:35;100411.19;;;14.56;100.00
62031;BME280;62035;52.094;5.112;2022-11-15T13:20:23;100403.84;;;14.80;100.00
62031;BME280;62035;52.094;5.112;2022-11-15T13:23:11;100406.38;;;14.66;100.00
62031;BME280;62035;52.094;5.112;2022-11-15T13:28:50;100391.13;;;14.38;100.00